createdAt,value
2019-02-07T00:01:24.474Z,-1.07
2019-02-07T00:04:39.683Z,-1.06
2019-02-07T00:07:55.466Z,-1.00
2019-02-07T00:11:10.699Z,-0.97
2019-02-07T00:14:25.722Z,-1.16
2019-02-07T00:17:41.194Z,-1.35
2019-02-07T00:20:56.754Z,-1.18
2019-02-07T00:24:12.147Z,-1.09
2019-02-07T00:27:45.870Z,-1.04
2019-02-07T00:31:01.235Z,-1.00
2019-02-07T00:34:16.694Z,-0.94
2019-02-07T00:41:06.721Z,-0.90
2019-02-07T00:44:22.290Z,-0.81
2019-02-07T00:47:38.258Z,-0.82
2019-02-07T00:50:53.579Z,-0.89
2019-02-07T00:54:09.270Z,-0.89
2019-02-07T00:57:24.831Z,-0.86
2019-02-07T01:00:40.579Z,-0.89
2019-02-07T01:03:56.035Z,-0.87
2019-02-07T01:07:11.594Z,-0.83
2019-02-07T01:10:26.963Z,-0.74
2019-02-07T01:13:42.403Z,-0.65
2019-02-07T01:16:57.595Z,-0.80
2019-02-07T01:20:13.434Z,-0.68
2019-02-07T01:23:28.679Z,-0.57
2019-02-07T01:26:44.224Z,-0.50
2019-02-07T01:29:59.467Z,-0.42
2019-02-07T01:33:15.401Z,-0.37
2019-02-07T01:36:31.623Z,-0.31
2019-02-07T01:39:47.370Z,-0.33
2019-02-07T01:43:03.425Z,-0.26
2019-02-07T01:46:18.807Z,-0.28
2019-02-07T01:49:34.251Z,-0.28
2019-02-07T01:52:49.920Z,-0.28
2019-02-07T01:56:05.050Z,-0.27
2019-02-07T01:59:20.921Z,-0.32
2019-02-07T02:02:36.052Z,-0.27
2019-02-07T02:05:51.331Z,-0.19
2019-02-07T02:09:06.662Z,-0.14
2019-02-07T02:12:22.446Z,-0.13
2019-02-07T02:15:37.906Z,-0.16
2019-02-07T02:18:53.756Z,-0.16
2019-02-07T02:22:09.098Z,-0.07
2019-02-07T02:25:24.779Z,-0.08
2019-02-07T02:28:39.917Z,-0.10
2019-02-07T02:31:55.263Z,-0.08
2019-02-07T02:35:10.411Z,-0.01
2019-02-07T02:38:26.532Z,0.01
2019-02-07T02:41:41.852Z,-0.08
2019-02-07T02:44:57.499Z,-0.11
2019-02-07T02:48:12.639Z,0.03
2019-02-07T02:51:27.807Z,-0.01
2019-02-07T02:54:46.334Z,-0.04
2019-02-07T02:58:02.300Z,0.08
2019-02-07T03:01:44.384Z,0.14
2019-02-07T03:05:13.124Z,0.22
2019-02-07T03:08:44.763Z,0.19
2019-02-07T03:12:17.819Z,0.02
2019-02-07T03:15:59.112Z,-0.06
2019-02-07T03:19:27.880Z,0.05
2019-02-07T03:23:09.887Z,0.19
2019-02-07T03:26:40.890Z,0.24
2019-02-07T03:30:23.168Z,0.31
2019-02-07T03:34:02.126Z,0.37
2019-02-07T03:37:44.117Z,0.42
2019-02-07T03:41:29.435Z,0.38
2019-02-07T03:45:08.529Z,0.42
2019-02-07T03:48:56.957Z,0.40
2019-02-07T03:52:27.136Z,0.40
2019-02-07T03:56:03.169Z,0.46
2019-02-07T03:59:54.977Z,0.53
2019-02-07T04:03:25.952Z,0.54
2019-02-07T04:06:57.836Z,0.43
2019-02-07T04:10:29.000Z,0.48
2019-02-07T04:14:02.217Z,0.56
2019-02-07T04:17:47.167Z,0.61
2019-02-07T04:21:19.088Z,0.58
2019-02-07T04:25:08.341Z,0.66
2019-02-07T04:28:42.829Z,0.76
2019-02-07T04:32:16.918Z,0.69
2019-02-07T04:35:55.084Z,0.69
2019-02-07T04:39:17.679Z,0.75
2019-02-07T04:43:09.426Z,0.71
2019-02-07T04:46:49.591Z,0.77
2019-02-07T04:50:33.618Z,0.71
2019-02-07T04:54:07.974Z,0.76
2019-02-07T04:57:40.319Z,0.62
2019-02-07T05:01:25.470Z,0.63
2019-02-07T05:05:07.919Z,0.63
2019-02-07T05:08:31.604Z,0.63
2019-02-07T05:12:10.982Z,0.67
2019-02-07T05:15:57.151Z,0.60
2019-02-07T05:19:29.373Z,0.60
2019-02-07T05:23:05.301Z,0.68
2019-02-07T05:26:53.597Z,0.72
2019-02-07T05:30:32.676Z,0.82
2019-02-07T05:34:12.154Z,0.81
2019-02-07T05:37:45.145Z,0.89
2019-02-07T05:41:13.089Z,0.94
2019-02-07T05:44:40.540Z,0.89
2019-02-07T05:48:15.418Z,1.02
2019-02-07T05:51:47.877Z,1.09
2019-02-07T05:55:14.880Z,1.11
2019-02-07T05:58:42.504Z,1.02
2019-02-07T06:02:30.857Z,1.04
2019-02-07T06:06:02.946Z,1.02
2019-02-07T06:09:27.915Z,1.14
2019-02-07T06:13:06.181Z,1.16
2019-02-07T06:16:48.261Z,1.22
2019-02-07T06:20:31.126Z,1.29
2019-02-07T06:24:01.822Z,1.45
2019-02-07T06:27:32.759Z,1.64
2019-02-07T06:31:07.310Z,1.76
2019-02-07T06:34:39.776Z,1.79
2019-02-07T06:38:12.239Z,1.78
2019-02-07T06:41:46.592Z,1.71
2019-02-07T06:45:32.030Z,1.68
2019-02-07T06:49:13.811Z,1.76
2019-02-07T06:52:38.881Z,1.82
2019-02-07T06:56:27.189Z,2.03
2019-02-07T06:59:58.780Z,1.96
2019-02-07T07:03:28.694Z,1.85
2019-02-07T07:07:09.219Z,1.76
2019-02-07T07:10:54.623Z,1.67
2019-02-07T07:14:22.091Z,1.66
2019-02-07T07:17:55.267Z,1.84
2019-02-07T07:21:27.204Z,1.86
2019-02-07T07:25:15.392Z,1.79
2019-02-07T07:28:45.977Z,1.80
2019-02-07T07:32:22.309Z,1.89
2019-02-07T07:35:58.519Z,1.92
2019-02-07T07:39:30.446Z,1.97
2019-02-07T07:43:04.155Z,2.04
2019-02-07T07:46:36.412Z,2.13
2019-02-07T07:50:02.996Z,2.29
2019-02-07T07:53:45.165Z,2.15
2019-02-07T07:57:17.909Z,2.10
2019-02-07T08:01:03.315Z,2.02
2019-02-07T08:04:49.337Z,2.03
2019-02-07T08:08:13.620Z,1.85
2019-02-07T08:11:48.403Z,2.05
2019-02-07T08:15:22.472Z,2.14
2019-02-07T08:18:52.780Z,2.22
2019-02-07T08:22:41.332Z,2.24
2019-02-07T08:26:10.903Z,2.30
2019-02-07T08:29:46.902Z,2.49
2019-02-07T08:33:33.784Z,2.79
2019-02-07T08:37:06.044Z,3.10
2019-02-07T08:40:30.701Z,3.55
2019-02-07T08:44:07.016Z,3.95
2019-02-07T08:47:40.145Z,4.20
2019-02-07T08:51:11.266Z,4.50
2019-02-07T08:54:43.428Z,4.47
2019-02-07T08:58:17.857Z,4.68
2019-02-07T09:02:03.614Z,4.87
2019-02-07T09:05:39.979Z,4.88
2019-02-07T09:09:12.064Z,5.04
2019-02-07T09:12:55.202Z,5.13
2019-02-07T09:16:35.501Z,5.02
2019-02-07T09:20:16.642Z,5.13
2019-02-07T09:24:00.000Z,5.17
2019-02-07T09:27:42.014Z,5.26
2019-02-07T09:31:27.598Z,5.33
2019-02-07T09:35:18.556Z,5.39
2019-02-07T09:38:47.216Z,5.54
2019-02-07T09:42:24.566Z,5.40
2019-02-07T09:45:56.785Z,5.28
2019-02-07T09:49:24.526Z,5.30
2019-02-07T09:52:47.973Z,5.36
2019-02-07T09:56:11.521Z,5.41
2019-02-07T09:59:45.062Z,5.49
2019-02-07T10:03:08.007Z,5.26
2019-02-07T10:06:35.667Z,5.32
2019-02-07T10:10:15.122Z,5.35
2019-02-07T10:13:49.833Z,5.59
2019-02-07T10:17:29.497Z,5.63
2019-02-07T10:21:02.715Z,5.65
2019-02-07T10:24:28.271Z,5.75
2019-02-07T10:27:57.258Z,5.80
2019-02-07T10:31:22.437Z,5.85
2019-02-07T10:34:54.347Z,6.03
2019-02-07T10:38:26.574Z,6.09
2019-02-07T10:42:01.471Z,5.87
2019-02-07T10:45:33.517Z,5.97
2019-02-07T10:49:08.047Z,5.85
2019-02-07T10:52:44.764Z,5.86
2019-02-07T10:56:25.722Z,5.83
2019-02-07T10:59:57.564Z,5.89
2019-02-07T11:03:42.665Z,5.97
2019-02-07T11:07:21.594Z,6.01
2019-02-07T11:10:51.122Z,6.01
2019-02-07T11:14:33.292Z,5.96
2019-02-07T11:18:05.328Z,5.93
2019-02-07T11:21:32.039Z,6.05
2019-02-07T11:25:13.168Z,6.13
2019-02-07T11:28:41.548Z,6.06
2019-02-07T11:32:16.105Z,6.26
2019-02-07T11:40:15.943Z,6.43
2019-02-07T11:43:47.380Z,6.28
2019-02-07T11:47:29.824Z,6.29
2019-02-07T11:50:55.652Z,6.62
2019-02-07T11:54:28.595Z,6.56
2019-02-07T11:57:58.352Z,6.42
2019-02-07T12:01:30.799Z,6.41
2019-02-07T12:05:05.495Z,6.35
2019-02-07T12:08:54.169Z,6.17
2019-02-07T12:12:28.329Z,6.13
2019-02-07T12:16:13.500Z,6.24
2019-02-07T12:19:52.918Z,6.36
2019-02-07T12:23:27.010Z,6.33
2019-02-07T12:27:01.844Z,6.29
2019-02-07T12:30:47.543Z,6.25
2019-02-07T12:34:13.733Z,6.28
2019-02-07T12:37:36.642Z,6.49
2019-02-07T12:41:22.667Z,6.61
2019-02-07T12:44:56.293Z,6.54
2019-02-07T12:48:41.677Z,6.49
2019-02-07T12:52:12.716Z,6.50
2019-02-07T12:55:52.345Z,6.48
2019-02-07T12:59:30.389Z,6.77
2019-02-07T13:03:06.135Z,7.31
2019-02-07T13:06:45.288Z,7.12
2019-02-07T13:10:21.229Z,7.08
2019-02-07T13:13:56.846Z,6.93
2019-02-07T13:17:24.719Z,6.93
2019-02-07T13:20:49.367Z,6.87
2019-02-07T13:24:26.182Z,6.90
2019-02-07T13:28:09.380Z,7.16
2019-02-07T13:31:54.587Z,7.63
2019-02-07T13:35:34.161Z,7.67
2019-02-07T13:39:07.095Z,7.79
2019-02-07T13:42:39.401Z,7.80
2019-02-07T13:46:15.354Z,7.65
2019-02-07T13:49:57.373Z,7.61
2019-02-07T13:53:49.056Z,7.75
2019-02-07T13:57:22.121Z,8.06
2019-02-07T14:00:56.950Z,8.11
2019-02-07T14:04:28.894Z,8.38
2019-02-07T14:07:58.148Z,8.38
2019-02-07T14:11:32.691Z,8.31
2019-02-07T14:15:07.491Z,7.99
2019-02-07T14:18:46.812Z,7.59
2019-02-07T14:22:21.298Z,7.55
2019-02-07T14:26:06.476Z,7.43
2019-02-07T14:29:41.117Z,7.52
2019-02-07T14:33:07.039Z,7.38
2019-02-07T14:36:38.654Z,7.29
2019-02-07T14:40:14.795Z,7.12
2019-02-07T14:43:38.196Z,7.09
2019-02-07T14:46:53.585Z,7.06
2019-02-07T14:50:14.951Z,7.01
2019-02-07T14:53:27.027Z,7.11
2019-02-07T14:56:42.697Z,7.09
2019-02-07T14:59:58.050Z,6.94
2019-02-07T15:03:13.615Z,7.00
2019-02-07T15:06:29.377Z,6.98
2019-02-07T15:09:44.629Z,7.10
2019-02-07T15:13:01.303Z,7.10
2019-02-07T15:16:16.668Z,7.07
2019-02-07T15:19:32.111Z,7.11
2019-02-07T15:22:47.351Z,7.14
2019-02-07T15:26:03.228Z,7.13
2019-02-07T15:29:18.559Z,7.05
2019-02-07T15:32:34.041Z,7.08
2019-02-07T15:35:49.590Z,7.04
2019-02-07T15:39:07.158Z,6.93
2019-02-07T15:42:22.688Z,6.91
2019-02-07T15:45:38.826Z,6.98
2019-02-07T15:48:54.316Z,6.94
2019-02-07T15:52:09.635Z,6.79
2019-02-07T15:55:25.009Z,6.68
2019-02-07T15:58:57.730Z,6.73
2019-02-07T16:02:40.011Z,6.64
2019-02-07T16:05:55.503Z,6.66
2019-02-07T16:09:12.292Z,6.63
2019-02-07T16:12:27.399Z,6.50
2019-02-07T16:15:42.955Z,6.52
2019-02-07T16:18:58.619Z,6.38
2019-02-07T16:22:14.236Z,6.39
2019-02-07T16:25:29.823Z,6.34
2019-02-07T16:28:45.066Z,6.21
2019-02-07T16:32:00.784Z,6.15
2019-02-07T16:35:15.646Z,6.09
2019-02-07T16:38:31.956Z,5.99
2019-02-07T16:41:47.846Z,6.13
2019-02-07T16:45:03.488Z,6.02
2019-02-07T16:48:19.036Z,5.80
2019-02-07T16:51:34.589Z,5.66
2019-02-07T16:54:49.985Z,5.46
2019-02-07T16:58:05.726Z,5.39
2019-02-07T17:01:21.477Z,5.28
2019-02-07T17:04:36.730Z,5.17
2019-02-07T17:07:51.854Z,5.08
2019-02-07T17:11:07.009Z,5.02
2019-02-07T17:14:22.179Z,5.03
2019-02-07T17:17:37.411Z,5.33
2019-02-07T17:20:52.351Z,5.11
2019-02-07T17:24:07.930Z,5.01
2019-02-07T17:27:23.283Z,5.08
2019-02-07T17:30:42.744Z,5.04
2019-02-07T17:33:57.984Z,5.13
2019-02-07T17:37:13.545Z,5.06
2019-02-07T17:40:29.009Z,4.99
2019-02-07T17:43:44.450Z,5.00
2019-02-07T17:46:59.602Z,4.97
2019-02-07T17:50:18.262Z,4.97
2019-02-07T17:53:33.885Z,5.02
2019-02-07T17:56:49.360Z,5.10
2019-02-07T18:00:10.415Z,5.17
2019-02-07T18:03:25.663Z,5.29
2019-02-07T18:06:41.443Z,5.21
2019-02-07T18:09:56.692Z,5.26
2019-02-07T18:13:12.240Z,5.25
2019-02-07T18:16:27.632Z,5.23
2019-02-07T18:19:42.821Z,5.23
2019-02-07T18:22:58.408Z,5.06
2019-02-07T18:26:13.968Z,5.22
2019-02-07T18:29:29.331Z,5.25
2019-02-07T18:32:44.939Z,5.06
2019-02-07T18:36:00.539Z,5.00
2019-02-07T18:39:16.203Z,4.93
2019-02-07T18:42:31.594Z,5.00
2019-02-07T18:45:47.241Z,4.90
2019-02-07T18:49:02.462Z,4.95
2019-02-07T18:52:18.032Z,5.00
2019-02-07T18:55:33.578Z,5.00
2019-02-07T18:58:49.439Z,5.06
2019-02-07T19:02:04.843Z,4.96
2019-02-07T19:05:20.979Z,4.95
2019-02-07T19:08:36.526Z,4.93
2019-02-07T19:11:51.985Z,4.96
2019-02-07T19:15:11.211Z,5.02
2019-02-07T19:18:26.780Z,5.02
2019-02-07T19:21:42.149Z,5.00
2019-02-07T19:24:57.702Z,5.02
2019-02-07T19:28:13.357Z,5.10
2019-02-07T19:31:28.602Z,5.02
2019-02-07T19:34:43.762Z,5.07
2019-02-07T19:37:59.412Z,5.14
2019-02-07T19:41:14.673Z,5.19
2019-02-07T19:44:30.053Z,5.11
2019-02-07T19:47:45.466Z,5.16
2019-02-07T19:51:00.623Z,5.06
2019-02-07T19:54:15.803Z,5.10
2019-02-07T19:57:31.710Z,5.05
2019-02-07T20:00:47.100Z,5.04
2019-02-07T20:04:03.298Z,5.03
2019-02-07T20:07:18.472Z,5.02
2019-02-07T20:10:33.866Z,5.03
2019-02-07T20:13:49.392Z,5.11
2019-02-07T20:17:04.257Z,5.19
2019-02-07T20:20:20.235Z,5.08
2019-02-07T20:23:35.483Z,5.05
2019-02-07T20:26:51.042Z,5.07
2019-02-07T20:30:10.580Z,5.16
2019-02-07T20:33:26.250Z,5.03
2019-02-07T20:36:41.595Z,4.96
2019-02-07T20:39:56.838Z,4.98
2019-02-07T20:43:12.206Z,4.95
2019-02-07T20:46:27.457Z,4.88
2019-02-07T20:49:42.855Z,4.94
2019-02-07T20:52:58.040Z,4.93
2019-02-07T20:56:13.416Z,4.89
2019-02-07T20:59:28.625Z,4.93
2019-02-07T21:02:44.428Z,4.95
2019-02-07T21:05:59.678Z,4.89
2019-02-07T21:09:15.243Z,4.88
2019-02-07T21:12:30.586Z,4.91
2019-02-07T21:15:46.180Z,4.91
2019-02-07T21:19:01.968Z,4.86
2019-02-07T21:22:17.467Z,5.02
2019-02-07T21:25:38.744Z,4.82
2019-02-07T21:28:54.410Z,4.90
2019-02-07T21:32:10.726Z,4.93
2019-02-07T21:35:25.810Z,4.78
2019-02-07T21:38:40.876Z,4.75
2019-02-07T21:41:56.035Z,4.61
2019-02-07T21:45:12.617Z,4.68
2019-02-07T21:48:28.067Z,4.70
2019-02-07T21:51:43.524Z,4.72
2019-02-07T21:54:59.078Z,4.78
2019-02-07T21:58:14.343Z,4.72
2019-02-07T22:01:29.786Z,4.68
2019-02-07T22:04:45.653Z,4.63
2019-02-07T22:08:01.106Z,4.73
2019-02-07T22:11:16.662Z,4.68
2019-02-07T22:14:32.124Z,4.58
2019-02-07T22:17:47.811Z,4.57
2019-02-07T22:21:03.336Z,4.54
2019-02-07T22:24:19.203Z,4.58
2019-02-07T22:27:34.321Z,4.50
2019-02-07T22:30:49.805Z,4.49
2019-02-07T22:34:04.851Z,4.54
2019-02-07T22:37:20.108Z,4.44
2019-02-07T22:40:35.577Z,4.47
2019-02-07T22:43:51.628Z,4.49
2019-02-07T22:47:07.302Z,4.52
2019-02-07T22:50:22.714Z,4.41
2019-02-07T22:53:37.886Z,4.40
2019-02-07T22:56:53.242Z,4.37
2019-02-07T23:00:52.190Z,4.45
2019-02-07T23:04:09.998Z,4.41
2019-02-07T23:07:25.214Z,4.39
2019-02-07T23:10:40.647Z,4.37
2019-02-07T23:13:56.252Z,4.38
2019-02-07T23:17:11.615Z,4.46
2019-02-07T23:20:27.093Z,4.36
2019-02-07T23:23:43.381Z,4.39
2019-02-07T23:26:58.798Z,4.31
2019-02-07T23:30:14.023Z,4.38
2019-02-07T23:33:29.699Z,4.39
2019-02-07T23:36:45.701Z,4.35
2019-02-07T23:40:01.168Z,4.30
2019-02-07T23:43:16.588Z,4.28
2019-02-07T23:46:31.840Z,4.29
2019-02-07T23:49:47.192Z,4.22
2019-02-07T23:53:02.673Z,4.24
2019-02-07T23:56:18.005Z,4.30
2019-02-07T23:59:33.555Z,4.28
